sensor_id;sensor_type;location;lat;lon;timestamp;pressure;altitude;pressure_sealevel;temperature;humidity
7986;BME280;4038;42.612;23.066;2023-05-02T00:00:27;93312.75;;;27.62;27.63
7986;BME280;4038;42.612;23.066;2023-05-02T00:02:52;93313.63;;;28.84;25.59
7986;BME280;4038;42.612;23.066;2023-05-02T00:05:18;93314.69;;;29.84;24.45
7986;BME280;4038;42.612;23.066;2023-05-02T00:07:43;93323.19;;;28.46;26.27
7986;BME280;4038;42.612;23.066;2023-05-02T00:10:09;93307.28;;;29.90;24.42
7986;BME280;4038;42.612;23.066;2023-05-02T00:12:34;93307.03;;;30.35;23.71
7986;BME280;4038;42.612;23.066;2023-05-02T00:15:00;93311.50;;;30.26;23.71
7986;BME280;4038;42.612;23.066;2023-05-02T00:17:25;93319.00;;;30.59;23.39
7986;BME280;4038;42.612;23.066;2023-05-02T00:19:51;93314.09;;;30.48;23.62
7986;BME280;4038;42.612;23.066;2023-05-02T00:22:16;93311.63;;;30.79;23.18
7986;BME280;4038;42.612;23.066;2023-05-02T00:24:42;93311.66;;;30.17;23.72
7986;BME280;4038;42.612;23.066;2023-05-02T00:27:07;93313.38;;;30.22;23.83
7986;BME280;4038;42.612;23.066;2023-05-02T00:29:32;93316.72;;;30.07;23.95
7986;BME280;4038;42.612;23.066;2023-05-02T00:31:58;93317.31;;;30.93;22.94
7986;BME280;4038;42.612;23.066;2023-05-02T00:34:28;93324.34;;;31.72;22.67
7986;BME280;4038;42.612;23.066;2023-05-02T00:36:54;93324.09;;;29.40;24.36
7986;BME280;4038;42.612;23.066;2023-05-02T00:39:19;93321.75;;;29.13;24.59
7986;BME280;4038;42.612;23.066;2023-05-02T00:41:45;93324.38;;;27.77;26.47
7986;BME280;4038;42.612;23.066;2023-05-02T00:44:10;93327.59;;;26.50;28.42
7986;BME280;4038;42.612;23.066;2023-05-02T00:46:36;93328.25;;;29.62;24.73
7986;BME280;4038;42.612;23.066;2023-05-02T00:49:01;93318.63;;;29.79;24.11
7986;BME280;4038;42.612;23.066;2023-05-02T00:51:27;93319.19;;;29.52;24.25
7986;BME280;4038;42.612;23.066;2023-05-02T00:53:53;93320.88;;;28.43;25.67
7986;BME280;4038;42.612;23.066;2023-05-02T00:56:18;93319.59;;;29.83;24.12
7986;BME280;4038;42.612;23.066;2023-05-02T00:58:44;93319.19;;;29.52;24.69
7986;BME280;4038;42.612;23.066;2023-05-02T01:06:52;93321.72;;;26.77;28.26
7986;BME280;4038;42.612;23.066;2023-05-02T01:09:41;93324.94;;;26.42;28.94
7986;BME280;4038;42.612;23.066;2023-05-02T01:12:18;93320.66;;;25.74;29.80
7986;BME280;4038;42.612;23.066;2023-05-02T01:14:52;93320.81;;;27.25;27.61
7986;BME280;4038;42.612;23.066;2023-05-02T01:17:19;93320.78;;;26.24;28.64
7986;BME280;4038;42.612;23.066;2023-05-02T01:19:51;93314.59;;;28.77;25.79
7986;BME280;4038;42.612;23.066;2023-05-02T01:22:18;93315.53;;;28.70;25.63
7986;BME280;4038;42.612;23.066;2023-05-02T01:30:07;93322.13;;;26.23;28.82
7986;BME280;4038;42.612;23.066;2023-05-02T01:32:36;93314.28;;;28.50;26.05
7986;BME280;4038;42.612;23.066;2023-05-02T01:35:05;93306.06;;;30.31;24.07
7986;BME280;4038;42.612;23.066;2023-05-02T01:37:32;93315.59;;;28.93;24.93
7986;BME280;4038;42.612;23.066;2023-05-02T01:39:59;93317.00;;;28.59;25.89
7986;BME280;4038;42.612;23.066;2023-05-02T01:42:26;93317.56;;;29.49;24.38
7986;BME280;4038;42.612;23.066;2023-05-02T01:44:53;93316.22;;;30.47;23.69
7986;BME280;4038;42.612;23.066;2023-05-02T01:47:21;93314.44;;;30.28;23.97
7986;BME280;4038;42.612;23.066;2023-05-02T01:49:47;93312.47;;;30.31;23.49
7986;BME280;4038;42.612;23.066;2023-05-02T01:52:13;93322.28;;;25.58;29.31
7986;BME280;4038;42.612;23.066;2023-05-02T01:54:39;93328.69;;;25.32;29.78
7986;BME280;4038;42.612;23.066;2023-05-02T01:57:07;93323.16;;;26.09;28.72
7986;BME280;4038;42.612;23.066;2023-05-02T01:59:34;93317.69;;;28.81;25.27
7986;BME280;4038;42.612;23.066;2023-05-02T02:02:01;93326.69;;;28.23;25.62
7986;BME280;4038;42.612;23.066;2023-05-02T02:04:29;93320.56;;;28.71;25.21
7986;BME280;4038;42.612;23.066;2023-05-02T02:07:05;93314.78;;;28.69;24.83
7986;BME280;4038;42.612;23.066;2023-05-02T02:09:33;93324.94;;;29.07;24.65
7986;BME280;4038;42.612;23.066;2023-05-02T02:12:07;93322.63;;;30.11;23.29
7986;BME280;4038;42.612;23.066;2023-05-02T02:14:41;93321.25;;;30.12;23.56
7986;BME280;4038;42.612;23.066;2023-05-02T02:17:14;93327.06;;;30.39;23.05
7986;BME280;4038;42.612;23.066;2023-05-02T02:19:41;93323.75;;;30.06;23.68
7986;BME280;4038;42.612;23.066;2023-05-02T02:22:07;93319.28;;;29.07;24.27
7986;BME280;4038;42.612;23.066;2023-05-02T02:24:35;93322.44;;;28.13;25.47
7986;BME280;4038;42.612;23.066;2023-05-02T02:27:03;93330.00;;;28.53;24.63
7986;BME280;4038;42.612;23.066;2023-05-02T02:29:28;93341.34;;;27.37;25.94
7986;BME280;4038;42.612;23.066;2023-05-02T02:31:54;93332.69;;;28.62;24.28
7986;BME280;4038;42.612;23.066;2023-05-02T02:34:20;93340.78;;;28.56;25.10
7986;BME280;4038;42.612;23.066;2023-05-02T02:37:04;93338.44;;;27.56;26.54
7986;BME280;4038;42.612;23.066;2023-05-02T02:39:41;93347.25;;;27.93;26.09
7986;BME280;4038;42.612;23.066;2023-05-02T02:42:24;93333.50;;;29.79;23.72
7986;BME280;4038;42.612;23.066;2023-05-02T02:45:04;93332.28;;;29.82;23.67
7986;BME280;4038;42.612;23.066;2023-05-02T02:55:16;93335.72;;;26.56;28.17
7986;BME280;4038;42.612;23.066;2023-05-02T02:57:55;93336.97;;;26.74;27.94
7986;BME280;4038;42.612;23.066;2023-05-02T03:00:24;93331.84;;;27.11;27.14
7986;BME280;4038;42.612;23.066;2023-05-02T03:02:53;93330.91;;;28.34;25.44
7986;BME280;4038;42.612;23.066;2023-05-02T03:05:20;93337.13;;;27.47;26.56
7986;BME280;4038;42.612;23.066;2023-05-02T03:07:46;93330.69;;;25.58;28.34
7986;BME280;4038;42.612;23.066;2023-05-02T03:10:12;93333.13;;;27.50;25.89
7986;BME280;4038;42.612;23.066;2023-05-02T03:12:37;93327.59;;;27.62;25.54
7986;BME280;4038;42.612;23.066;2023-05-02T03:17:48;93326.28;;;23.08;31.95
7986;BME280;4038;42.612;23.066;2023-05-02T03:20:13;93335.13;;;23.39;31.91
7986;BME280;4038;42.612;23.066;2023-05-02T03:22:39;93335.34;;;23.75;30.89
7986;BME280;4038;42.612;23.066;2023-05-02T03:25:04;93334.75;;;23.94;30.90
7986;BME280;4038;42.612;23.066;2023-05-02T03:27:30;93331.03;;;26.29;27.80
7986;BME280;4038;42.612;23.066;2023-05-02T03:29:56;93337.78;;;27.67;26.27
7986;BME280;4038;42.612;23.066;2023-05-02T03:32:21;93334.50;;;27.92;25.54
7986;BME280;4038;42.612;23.066;2023-05-02T03:34:47;93325.22;;;28.22;25.21
7986;BME280;4038;42.612;23.066;2023-05-02T03:37:12;93336.78;;;26.51;27.42
7986;BME280;4038;42.612;23.066;2023-05-02T03:39:38;93336.09;;;25.37;28.83
7986;BME280;4038;42.612;23.066;2023-05-02T03:42:04;93337.53;;;25.18;29.50
7986;BME280;4038;42.612;23.066;2023-05-02T03:44:29;93340.88;;;23.83;31.30
7986;BME280;4038;42.612;23.066;2023-05-02T03:46:55;93341.53;;;25.25;28.92
7986;BME280;4038;42.612;23.066;2023-05-02T03:49:20;93339.69;;;24.74;29.26
7986;BME280;4038;42.612;23.066;2023-05-02T03:51:46;93344.31;;;26.38;27.44
7986;BME280;4038;42.612;23.066;2023-05-02T03:54:11;93347.47;;;24.66;29.24
7986;BME280;4038;42.612;23.066;2023-05-02T03:56:37;93345.44;;;24.22;30.63
7986;BME280;4038;42.612;23.066;2023-05-02T03:59:03;93353.38;;;26.87;27.15
7986;BME280;4038;42.612;23.066;2023-05-02T04:01:29;93343.59;;;27.81;26.00
7986;BME280;4038;42.612;23.066;2023-05-02T04:03:56;93355.91;;;27.24;26.57
7986;BME280;4038;42.612;23.066;2023-05-02T04:06:21;93343.66;;;28.14;25.30
7986;BME280;4038;42.612;23.066;2023-05-02T04:08:47;93344.94;;;28.55;24.90
7986;BME280;4038;42.612;23.066;2023-05-02T04:11:22;93358.38;;;29.46;24.20
7986;BME280;4038;42.612;23.066;2023-05-02T04:13:48;93357.19;;;28.81;24.52
7986;BME280;4038;42.612;23.066;2023-05-02T04:16:13;93354.75;;;28.87;25.01
7986;BME280;4038;42.612;23.066;2023-05-02T04:18:39;93352.19;;;29.61;24.07
7986;BME280;4038;42.612;23.066;2023-05-02T04:21:06;93345.59;;;30.17;23.94
7986;BME280;4038;42.612;23.066;2023-05-02T04:23:32;93355.97;;;28.18;25.35
7986;BME280;4038;42.612;23.066;2023-05-02T04:25:57;93348.59;;;28.46;25.12
7986;BME280;4038;42.612;23.066;2023-05-02T04:28:23;93346.69;;;28.06;25.64
7986;BME280;4038;42.612;23.066;2023-05-02T04:30:49;93351.50;;;28.37;25.44
7986;BME280;4038;42.612;23.066;2023-05-02T04:33:14;93361.69;;;28.42;25.24
7986;BME280;4038;42.612;23.066;2023-05-02T04:35:40;93354.72;;;28.43;25.24
7986;BME280;4038;42.612;23.066;2023-05-02T04:38:06;93370.00;;;28.28;26.04
7986;BME280;4038;42.612;23.066;2023-05-02T04:40:33;93364.94;;;28.92;25.28
7986;BME280;4038;42.612;23.066;2023-05-02T04:42:58;93362.81;;;28.48;25.42
7986;BME280;4038;42.612;23.066;2023-05-02T04:45:24;93358.66;;;28.49;26.14
7986;BME280;4038;42.612;23.066;2023-05-02T04:47:50;93364.72;;;28.34;25.84
7986;BME280;4038;42.612;23.066;2023-05-02T04:50:15;93366.47;;;29.52;24.52
7986;BME280;4038;42.612;23.066;2023-05-02T04:52:40;93363.31;;;28.89;25.06
7986;BME280;4038;42.612;23.066;2023-05-02T04:55:06;93368.50;;;29.86;24.30
7986;BME280;4038;42.612;23.066;2023-05-02T04:57:32;93372.19;;;27.66;26.70
7986;BME280;4038;42.612;23.066;2023-05-02T04:59:57;93365.81;;;28.08;26.45
7986;BME280;4038;42.612;23.066;2023-05-02T05:02:39;93364.34;;;29.75;24.96
7986;BME280;4038;42.612;23.066;2023-05-02T05:05:05;93353.53;;;30.32;24.17
7986;BME280;4038;42.612;23.066;2023-05-02T05:07:30;93370.53;;;29.37;25.11
7986;BME280;4038;42.612;23.066;2023-05-02T05:09:55;93367.09;;;30.84;23.09
7986;BME280;4038;42.612;23.066;2023-05-02T05:12:21;93374.72;;;30.19;23.91
7986;BME280;4038;42.612;23.066;2023-05-02T05:14:46;93371.13;;;29.94;24.05
7986;BME280;4038;42.612;23.066;2023-05-02T05:17:12;93378.34;;;29.27;25.00
7986;BME280;4038;42.612;23.066;2023-05-02T05:19:37;93383.00;;;30.52;24.03
7986;BME280;4038;42.612;23.066;2023-05-02T05:22:03;93378.75;;;29.56;25.15
7986;BME280;4038;42.612;23.066;2023-05-02T05:24:28;93386.59;;;29.23;25.68
7986;BME280;4038;42.612;23.066;2023-05-02T05:26:53;93393.34;;;28.73;26.29
7986;BME280;4038;42.612;23.066;2023-05-02T05:29:19;93397.59;;;30.86;23.83
7986;BME280;4038;42.612;23.066;2023-05-02T05:31:44;93390.25;;;32.13;22.63
7986;BME280;4038;42.612;23.066;2023-05-02T05:34:10;93388.75;;;31.05;23.37
7986;BME280;4038;42.612;23.066;2023-05-02T05:36:35;93389.88;;;32.05;22.71
7986;BME280;4038;42.612;23.066;2023-05-02T05:39:02;93386.88;;;31.49;23.39
7986;BME280;4038;42.612;23.066;2023-05-02T05:41:28;93387.31;;;30.53;24.26
7986;BME280;4038;42.612;23.066;2023-05-02T05:43:54;93385.28;;;30.31;24.65
7986;BME280;4038;42.612;23.066;2023-05-02T05:46:20;93392.00;;;30.99;24.04
7986;BME280;4038;42.612;23.066;2023-05-02T05:48:46;93394.09;;;31.91;23.06
7986;BME280;4038;42.612;23.066;2023-05-02T05:51:11;93392.50;;;34.27;20.64
7986;BME280;4038;42.612;23.066;2023-05-02T05:53:38;93402.78;;;34.34;20.49
7986;BME280;4038;42.612;23.066;2023-05-02T05:56:12;93396.13;;;33.33;21.49
7986;BME280;4038;42.612;23.066;2023-05-02T05:58:38;93398.28;;;33.19;21.83
7986;BME280;4038;42.612;23.066;2023-05-02T06:01:04;93397.97;;;35.80;19.08
7986;BME280;4038;42.612;23.066;2023-05-02T06:03:29;93400.75;;;36.79;18.33
7986;BME280;4038;42.612;23.066;2023-05-02T06:05:55;93398.00;;;39.05;16.64
7986;BME280;4038;42.612;23.066;2023-05-02T06:08:21;93395.38;;;38.06;17.44
7986;BME280;4038;42.612;23.066;2023-05-02T06:10:46;93401.50;;;36.82;19.08
7986;BME280;4038;42.612;23.066;2023-05-02T06:13:12;93389.75;;;36.93;18.33
7986;BME280;4038;42.612;23.066;2023-05-02T06:15:37;93397.91;;;38.46;17.46
7986;BME280;4038;42.612;23.066;2023-05-02T06:18:02;93398.16;;;38.54;17.40
7986;BME280;4038;42.612;23.066;2023-05-02T06:20:28;93392.13;;;38.99;16.90
7986;BME280;4038;42.612;23.066;2023-05-02T06:22:53;93397.38;;;38.25;17.56
7986;BME280;4038;42.612;23.066;2023-05-02T06:25:19;93392.75;;;36.75;18.58
7986;BME280;4038;42.612;23.066;2023-05-02T06:27:44;93395.31;;;37.57;17.95
7986;BME280;4038;42.612;23.066;2023-05-02T06:30:10;93395.56;;;37.17;18.64
7986;BME280;4038;42.612;23.066;2023-05-02T06:32:35;93384.09;;;41.00;15.75
7986;BME280;4038;42.612;23.066;2023-05-02T06:35:04;93387.06;;;43.37;14.27
7986;BME280;4038;42.612;23.066;2023-05-02T06:37:33;93383.94;;;42.36;14.78
7986;BME280;4038;42.612;23.066;2023-05-02T06:40:00;93379.41;;;38.79;16.59
7986;BME280;4038;42.612;23.066;2023-05-02T06:42:25;93381.63;;;40.42;15.66
7986;BME280;4038;42.612;23.066;2023-05-02T06:44:51;93371.16;;;36.70;18.57
7986;BME280;4038;42.612;23.066;2023-05-02T06:47:16;93382.50;;;36.68;18.68
7986;BME280;4038;42.612;23.066;2023-05-02T06:49:41;93374.34;;;37.02;18.34
7986;BME280;4038;42.612;23.066;2023-05-02T06:52:07;93378.75;;;40.06;16.25
7986;BME280;4038;42.612;23.066;2023-05-02T06:54:32;93373.28;;;39.20;16.22
7986;BME280;4038;42.612;23.066;2023-05-02T06:57:00;93379.91;;;41.07;15.22
7986;BME280;4038;42.612;23.066;2023-05-02T06:59:26;93371.69;;;39.77;16.07
7986;BME280;4038;42.612;23.066;2023-05-02T07:01:52;93385.06;;;38.21;17.46
7986;BME280;4038;42.612;23.066;2023-05-02T07:04:17;93378.84;;;38.84;16.93
7986;BME280;4038;42.612;23.066;2023-05-02T07:06:43;93386.38;;;41.07;15.43
7986;BME280;4038;42.612;23.066;2023-05-02T07:09:08;93384.06;;;42.48;14.38
7986;BME280;4038;42.612;23.066;2023-05-02T07:11:33;93392.16;;;42.66;13.82
7986;BME280;4038;42.612;23.066;2023-05-02T07:13:59;93383.38;;;40.59;15.34
7986;BME280;4038;42.612;23.066;2023-05-02T07:16:24;93388.59;;;40.67;15.25
7986;BME280;4038;42.612;23.066;2023-05-02T07:18:50;93386.78;;;38.06;17.31
7986;BME280;4038;42.612;23.066;2023-05-02T07:21:15;93392.13;;;39.29;16.15
7986;BME280;4038;42.612;23.066;2023-05-02T07:23:43;93394.81;;;36.95;17.73
7986;BME280;4038;42.612;23.066;2023-05-02T07:26:08;93400.75;;;36.79;18.38
7986;BME280;4038;42.612;23.066;2023-05-02T07:28:34;93398.19;;;39.12;16.45
7986;BME280;4038;42.612;23.066;2023-05-02T07:30:59;93391.34;;;39.57;16.19
7986;BME280;4038;42.612;23.066;2023-05-02T07:33:27;93393.31;;;39.18;16.36
7986;BME280;4038;42.612;23.066;2023-05-02T07:35:57;93396.19;;;40.90;15.11
7986;BME280;4038;42.612;23.066;2023-05-02T07:38:22;93393.88;;;38.83;16.60
7986;BME280;4038;42.612;23.066;2023-05-02T07:40:48;93390.81;;;40.32;15.36
7986;BME280;4038;42.612;23.066;2023-05-02T07:43:13;93400.91;;;39.67;15.66
7986;BME280;4038;42.612;23.066;2023-05-02T07:45:40;93385.28;;;40.44;15.29
7986;BME280;4038;42.612;23.066;2023-05-02T07:48:05;93400.81;;;44.96;12.77
7986;BME280;4038;42.612;23.066;2023-05-02T07:50:30;93396.88;;;41.32;14.68
7986;BME280;4038;42.612;23.066;2023-05-02T07:52:56;93395.91;;;42.76;14.17
7986;BME280;4038;42.612;23.066;2023-05-02T07:55:22;93392.44;;;39.41;15.72
7986;BME280;4038;42.612;23.066;2023-05-02T07:57:50;93394.66;;;41.75;14.83
7986;BME280;4038;42.612;23.066;2023-05-02T08:00:16;93398.53;;;43.27;13.83
7986;BME280;4038;42.612;23.066;2023-05-02T08:02:42;93396.31;;;40.98;14.87
7986;BME280;4038;42.612;23.066;2023-05-02T08:05:07;93404.69;;;40.10;15.85
7986;BME280;4038;42.612;23.066;2023-05-02T08:07:45;93388.13;;;38.55;16.96
7986;BME280;4038;42.612;23.066;2023-05-02T08:10:11;93397.81;;;35.21;19.65
7986;BME280;4038;42.612;23.066;2023-05-02T08:12:40;93399.66;;;35.87;19.57
7986;BME280;4038;42.612;23.066;2023-05-02T08:15:07;93403.56;;;37.44;18.52
7986;BME280;4038;42.612;23.066;2023-05-02T08:17:33;93401.69;;;39.38;16.32
7986;BME280;4038;42.612;23.066;2023-05-02T08:19:58;93399.84;;;37.87;17.62
7986;BME280;4038;42.612;23.066;2023-05-02T08:22:25;93404.56;;;38.54;16.98
7986;BME280;4038;42.612;23.066;2023-05-02T08:24:50;93408.22;;;37.58;17.54
7986;BME280;4038;42.612;23.066;2023-05-02T08:27:16;93399.84;;;38.65;16.89
7986;BME280;4038;42.612;23.066;2023-05-02T08:29:41;93394.34;;;40.67;15.78
7986;BME280;4038;42.612;23.066;2023-05-02T08:32:07;93389.53;;;40.41;16.08
7986;BME280;4038;42.612;23.066;2023-05-02T08:34:32;93388.00;;;39.07;16.18
7986;BME280;4038;42.612;23.066;2023-05-02T08:36:58;93397.31;;;37.06;17.59
7986;BME280;4038;42.612;23.066;2023-05-02T08:39:23;93405.09;;;37.26;17.32
7986;BME280;4038;42.612;23.066;2023-05-02T08:41:49;93391.91;;;37.86;17.08
7986;BME280;4038;42.612;23.066;2023-05-02T08:44:14;93398.97;;;39.78;15.72
7986;BME280;4038;42.612;23.066;2023-05-02T08:46:40;93396.03;;;41.70;14.61
7986;BME280;4038;42.612;23.066;2023-05-02T08:49:09;93387.50;;;38.86;16.16
7986;BME280;4038;42.612;23.066;2023-05-02T08:51:36;93396.97;;;37.16;16.90
7986;BME280;4038;42.612;23.066;2023-05-02T08:54:02;93391.16;;;36.09;17.81
7986;BME280;4038;42.612;23.066;2023-05-02T08:56:28;93392.09;;;37.21;17.10
7986;BME280;4038;42.612;23.066;2023-05-02T08:58:53;93393.09;;;39.38;15.21
7986;BME280;4038;42.612;23.066;2023-05-02T09:01:22;93394.91;;;40.99;14.94
7986;BME280;4038;42.612;23.066;2023-05-02T09:03:48;93394.38;;;39.97;13.98
7986;BME280;4038;42.612;23.066;2023-05-02T09:06:20;93400.59;;;36.97;16.41
7986;BME280;4038;42.612;23.066;2023-05-02T09:08:48;93390.47;;;39.50;14.74
7986;BME280;4038;42.612;23.066;2023-05-02T09:11:15;93385.94;;;40.05;14.75
7986;BME280;4038;42.612;23.066;2023-05-02T09:13:48;93392.06;;;38.95;15.14
7986;BME280;4038;42.612;23.066;2023-05-02T09:16:16;93393.56;;;40.26;14.31
7986;BME280;4038;42.612;23.066;2023-05-02T09:18:44;93384.56;;;42.30;13.10
7986;BME280;4038;42.612;23.066;2023-05-02T09:21:17;93395.94;;;41.64;13.11
7986;BME280;4038;42.612;23.066;2023-05-02T09:23:45;93392.69;;;42.46;12.75
7986;BME280;4038;42.612;23.066;2023-05-02T09:26:22;93375.03;;;41.13;13.38
7986;BME280;4038;42.612;23.066;2023-05-02T09:28:53;93375.13;;;42.90;12.43
7986;BME280;4038;42.612;23.066;2023-05-02T09:31:21;93373.91;;;42.41;13.70
7986;BME280;4038;42.612;23.066;2023-05-02T09:33:47;93353.69;;;41.30;13.34
7986;BME280;4038;42.612;23.066;2023-05-02T09:36:14;93375.41;;;39.82;14.61
7986;BME280;4038;42.612;23.066;2023-05-02T09:38:41;93376.03;;;42.38;12.78
7986;BME280;4038;42.612;23.066;2023-05-02T09:41:07;93364.41;;;37.05;15.61
7986;BME280;4038;42.612;23.066;2023-05-02T09:43:33;93359.69;;;35.30;17.36
7986;BME280;4038;42.612;23.066;2023-05-02T09:45:59;93359.78;;;35.14;17.40
7986;BME280;4038;42.612;23.066;2023-05-02T09:48:26;93364.53;;;37.31;16.32
7986;BME280;4038;42.612;23.066;2023-05-02T09:50:52;93366.69;;;37.09;15.80
7986;BME280;4038;42.612;23.066;2023-05-02T09:53:17;93352.63;;;38.40;14.88
7986;BME280;4038;42.612;23.066;2023-05-02T09:55:43;93352.50;;;38.62;14.84
7986;BME280;4038;42.612;23.066;2023-05-02T09:58:21;93355.44;;;40.62;13.88
7986;BME280;4038;42.612;23.066;2023-05-02T10:00:49;93348.28;;;39.55;14.71
7986;BME280;4038;42.612;23.066;2023-05-02T10:03:16;93336.97;;;38.43;15.19
7986;BME280;4038;42.612;23.066;2023-05-02T10:05:44;93324.31;;;39.10;14.94
7986;BME280;4038;42.612;23.066;2023-05-02T10:08:10;93339.75;;;36.70;16.81
7986;BME280;4038;42.612;23.066;2023-05-02T10:10:38;93337.16;;;37.48;16.25
7986;BME280;4038;42.612;23.066;2023-05-02T10:13:04;93341.53;;;40.10;14.57
7986;BME280;4038;42.612;23.066;2023-05-02T10:15:31;93334.22;;;39.69;14.69
7986;BME280;4038;42.612;23.066;2023-05-02T10:17:59;93335.97;;;37.31;15.97
7986;BME280;4038;42.612;23.066;2023-05-02T10:20:31;93332.66;;;37.17;16.16
7986;BME280;4038;42.612;23.066;2023-05-02T10:22:59;93332.25;;;36.61;16.55
7986;BME280;4038;42.612;23.066;2023-05-02T10:25:27;93336.75;;;34.55;18.38
7986;BME280;4038;42.612;23.066;2023-05-02T10:27:55;93331.50;;;38.25;15.67
7986;BME280;4038;42.612;23.066;2023-05-02T10:30:21;93329.66;;;34.05;19.20
7986;BME280;4038;42.612;23.066;2023-05-02T10:32:48;93336.91;;;34.95;18.08
7986;BME280;4038;42.612;23.066;2023-05-02T10:35:15;93332.31;;;36.20;17.14
7986;BME280;4038;42.612;23.066;2023-05-02T10:37:49;93319.63;;;38.65;15.41
7986;BME280;4038;42.612;23.066;2023-05-02T10:40:15;93314.22;;;33.92;18.61
7986;BME280;4038;42.612;23.066;2023-05-02T10:42:45;93320.97;;;34.88;18.37
7986;BME280;4038;42.612;23.066;2023-05-02T10:45:35;93314.63;;;34.89;18.06
7986;BME280;4038;42.612;23.066;2023-05-02T10:48:22;93320.41;;;38.40;15.77
7986;BME280;4038;42.612;23.066;2023-05-02T10:50:54;93317.25;;;36.39;16.96
7986;BME280;4038;42.612;23.066;2023-05-02T10:58:31;93325.09;;;36.60;17.27
7986;BME280;4038;42.612;23.066;2023-05-02T11:01:37;93326.28;;;39.35;15.50
7986;BME280;4038;42.612;23.066;2023-05-02T11:04:08;93318.38;;;40.02;14.84
7986;BME280;4038;42.612;23.066;2023-05-02T11:07:20;93316.97;;;40.81;13.63
7986;BME280;4038;42.612;23.066;2023-05-02T11:11:47;93312.06;;;41.90;13.76
7986;BME280;4038;42.612;23.066;2023-05-02T11:19:23;93281.66;;;41.22;13.63
7986;BME280;4038;42.612;23.066;2023-05-02T11:21:49;93284.53;;;38.94;14.91
7986;BME280;4038;42.612;23.066;2023-05-02T11:24:36;93292.72;;;37.69;16.38
7986;BME280;4038;42.612;23.066;2023-05-02T11:29:56;93283.38;;;37.19;16.57
7986;BME280;4038;42.612;23.066;2023-05-02T11:32:22;93288.22;;;36.47;17.34
7986;BME280;4038;42.612;23.066;2023-05-02T11:34:48;93278.22;;;36.24;17.20
7986;BME280;4038;42.612;23.066;2023-05-02T11:37:18;93274.44;;;35.18;17.97
7986;BME280;4038;42.612;23.066;2023-05-02T11:39:44;93269.13;;;38.50;15.42
7986;BME280;4038;42.612;23.066;2023-05-02T11:42:28;93265.91;;;38.65;16.19
7986;BME280;4038;42.612;23.066;2023-05-02T11:44:58;93266.19;;;36.27;17.40
7986;BME280;4038;42.612;23.066;2023-05-02T11:47:25;93261.50;;;34.78;18.23
7986;BME280;4038;42.612;23.066;2023-05-02T11:49:54;93268.94;;;35.42;17.80
7986;BME280;4038;42.612;23.066;2023-05-02T11:52:23;93265.59;;;38.83;16.14
7986;BME280;4038;42.612;23.066;2023-05-02T11:54:52;93261.81;;;39.72;14.63
7986;BME280;4038;42.612;23.066;2023-05-02T11:57:17;93253.97;;;38.75;14.81
7986;BME280;4038;42.612;23.066;2023-05-02T11:59:53;93254.09;;;39.11;15.08
7986;BME280;4038;42.612;23.066;2023-05-02T12:02:42;93246.84;;;40.56;14.46
7986;BME280;4038;42.612;23.066;2023-05-02T12:05:09;93242.44;;;37.12;16.73
7986;BME280;4038;42.612;23.066;2023-05-02T12:07:36;93225.66;;;37.50;16.05
7986;BME280;4038;42.612;23.066;2023-05-02T12:10:02;93233.28;;;37.93;15.99
7986;BME280;4038;42.612;23.066;2023-05-02T12:12:29;93230.09;;;37.81;16.38
7986;BME280;4038;42.612;23.066;2023-05-02T12:14:54;93225.00;;;38.61;16.02
7986;BME280;4038;42.612;23.066;2023-05-02T12:17:20;93223.69;;;40.04;15.05
7986;BME280;4038;42.612;23.066;2023-05-02T12:19:47;93213.09;;;39.38;14.51
7986;BME280;4038;42.612;23.066;2023-05-02T12:22:13;93206.53;;;39.00;14.75
7986;BME280;4038;42.612;23.066;2023-05-02T12:24:39;93206.69;;;38.76;15.24
7986;BME280;4038;42.612;23.066;2023-05-02T12:27:13;93210.84;;;40.51;14.05
7986;BME280;4038;42.612;23.066;2023-05-02T12:29:40;93207.25;;;38.39;16.47
7986;BME280;4038;42.612;23.066;2023-05-02T12:32:06;93201.28;;;37.21;16.47
7986;BME280;4038;42.612;23.066;2023-05-02T12:34:32;93200.44;;;37.42;15.27
7986;BME280;4038;42.612;23.066;2023-05-02T12:36:58;93188.78;;;39.08;14.45
7986;BME280;4038;42.612;23.066;2023-05-02T12:39:40;93177.63;;;39.24;14.11
7986;BME280;4038;42.612;23.066;2023-05-02T12:42:11;93177.00;;;38.93;14.62
7986;BME280;4038;42.612;23.066;2023-05-02T12:44:38;93178.28;;;42.01;12.87
7986;BME280;4038;42.612;23.066;2023-05-02T12:47:03;93178.59;;;38.39;14.93
7986;BME280;4038;42.612;23.066;2023-05-02T12:49:29;93176.78;;;38.51;14.29
7986;BME280;4038;42.612;23.066;2023-05-02T12:51:56;93168.72;;;38.76;14.97
7986;BME280;4038;42.612;23.066;2023-05-02T12:54:21;93174.28;;;37.02;15.60
7986;BME280;4038;42.612;23.066;2023-05-02T12:56:47;93165.03;;;40.17;13.49
7986;BME280;4038;42.612;23.066;2023-05-02T12:59:32;93166.81;;;41.39;13.18
7986;BME280;4038;42.612;23.066;2023-05-02T13:01:58;93156.25;;;40.51;13.18
7986;BME280;4038;42.612;23.066;2023-05-02T13:07:01;93152.97;;;39.09;14.30
7986;BME280;4038;42.612;23.066;2023-05-02T13:09:27;93158.97;;;37.97;14.47
7986;BME280;4038;42.612;23.066;2023-05-02T13:11:52;93157.47;;;40.86;12.63
7986;BME280;4038;42.612;23.066;2023-05-02T13:14:18;93138.75;;;37.61;14.22
7986;BME280;4038;42.612;23.066;2023-05-02T13:16:44;93150.47;;;38.93;13.73
7986;BME280;4038;42.612;23.066;2023-05-02T13:19:09;93146.16;;;40.04;13.19
7986;BME280;4038;42.612;23.066;2023-05-02T13:21:35;93143.03;;;39.14;13.79
7986;BME280;4038;42.612;23.066;2023-05-02T13:24:00;93144.31;;;39.40;13.49
7986;BME280;4038;42.612;23.066;2023-05-02T13:26:28;93127.94;;;39.13;13.80
7986;BME280;4038;42.612;23.066;2023-05-02T13:28:55;93139.34;;;39.83;13.45
7986;BME280;4038;42.612;23.066;2023-05-02T13:31:20;93140.81;;;40.28;13.11
7986;BME280;4038;42.612;23.066;2023-05-02T13:33:46;93137.16;;;40.24;13.12
7986;BME280;4038;42.612;23.066;2023-05-02T13:36:11;93127.47;;;38.25;14.26
7986;BME280;4038;42.612;23.066;2023-05-02T13:38:37;93133.31;;;39.31;13.95
7986;BME280;4038;42.612;23.066;2023-05-02T13:41:02;93124.97;;;42.97;11.82
7986;BME280;4038;42.612;23.066;2023-05-02T13:43:28;93129.50;;;40.38;13.35
7986;BME280;4038;42.612;23.066;2023-05-02T13:45:53;93117.56;;;42.61;12.09
7986;BME280;4038;42.612;23.066;2023-05-02T13:48:18;93132.63;;;41.69;12.51
7986;BME280;4038;42.612;23.066;2023-05-02T13:50:44;93115.56;;;39.38;13.40